Time;durP1;ratioP1;P1;durP2;ratioP2;P2;SDS_P1;SDS_P2;PMS_P1;PMS_P2;Temp;Humidity;BMP_temperature;BMP_pressure;BME280_temperature;BME280_humidity;BME280_pressure;Samples;Min_cycle;Max_cycle;Signal;HPM_P1;HPM_P2
2022/09/08 00:00:28;;;;;;;1.53;0.73;;;21.70;63.00;;;;;;5059075;28;20024;-76
2022/09/08 00:02:54;;;;;;;1.45;0.70;;;21.60;63.10;;;;;;5042206;28;20047;-77
2022/09/08 00:05:24;;;;;;;1.10;0.80;;;21.50;63.30;;;;;;5052005;28;20040;-76
2022/09/08 00:07:52;;;;;;;1.27;0.73;;;21.40;63.90;;;;;;5065369;28;20025;-76
2022/09/08 00:10:18;;;;;;;1.38;0.70;;;21.30;64.00;;;;;;5061918;28;20243;-76
2022/09/08 00:12:47;;;;;;;2.13;0.77;;;21.20;64.00;;;;;;5028756;28;20449;-76
2022/09/08 00:15:14;;;;;;;2.42;0.82;;;21.10;64.40;;;;;;5045072;28;20048;-76
2022/09/08 00:17:40;;;;;;;1.10;0.70;;;20.90;64.70;;;;;;5026850;28;20036;-76
2022/09/08 00:20:07;;;;;;;1.80;0.70;;;20.80;64.90;;;;;;5023377;28;20028;-77
2022/09/08 00:22:33;;;;;;;1.08;0.65;;;20.80;65.40;;;;;;5030777;28;20097;-77
2022/09/08 00:24:58;;;;;;;0.82;0.60;;;20.80;65.60;;;;;;5039596;28;20465;-77
2022/09/08 00:27:25;;;;;;;1.23;0.70;;;20.70;65.90;;;;;;5038290;28;20033;-77
2022/09/08 00:29:51;;;;;;;1.75;0.80;;;20.60;66.00;;;;;;5051737;28;20119;-76
2022/09/08 00:32:18;;;;;;;2.22;0.63;;;20.60;66.10;;;;;;5035455;28;20070;-76
2022/09/08 00:34:43;;;;;;;1.20;0.60;;;20.60;66.30;;;;;;5025725;28;20017;-77
2022/09/08 00:37:09;;;;;;;0.70;0.63;;;20.60;66.50;;;;;;5023671;28;20070;-77
2022/09/08 00:39:34;;;;;;;1.90;0.80;;;20.60;66.70;;;;;;5026742;28;20021;-77
2022/09/08 00:42:00;;;;;;;1.33;0.70;;;20.60;66.80;;;;;;5034251;28;20033;-77
2022/09/08 00:44:49;;;;;;;2.07;0.80;;;20.60;67.00;;;;;;5013860;28;20025;-76
2022/09/08 00:47:29;;;;;;;1.42;0.70;;;20.60;68.50;;;;;;5021243;28;20392;-77
2022/09/08 00:50:09;;;;;;;0.90;0.75;;;20.60;67.90;;;;;;5039219;28;20237;-77
2022/09/08 00:52:47;;;;;;;2.00;0.80;;;20.60;68.80;;;;;;5028222;28;20416;-77
2022/09/08 00:55:14;;;;;;;1.23;0.70;;;20.60;68.70;;;;;;5063743;28;20092;-77
2022/09/08 00:57:40;;;;;;;1.48;0.80;;;20.60;67.60;;;;;;5057711;28;20043;-77
2022/09/08 01:00:08;;;;;;;1.83;0.77;;;20.60;67.70;;;;;;5046346;28;20017;-77
2022/09/08 01:02:34;;;;;;;1.98;0.88;;;20.60;67.80;;;;;;5030809;28;20040;-77
2022/09/08 01:05:05;;;;;;;0.80;0.70;;;20.60;67.80;;;;;;5014041;28;21989;-77
2022/09/08 01:14:13;;;;;;;0.67;0.63;;;20.70;68.60;;;;;;5046076;28;20048;-77
2022/09/08 01:16:46;;;;;;;1.52;0.70;;;20.70;68.10;;;;;;5016515;28;20060;-77
2022/09/08 01:19:19;;;;;;;1.27;0.80;;;20.70;68.30;;;;;;5046472;28;20020;-77
2022/09/08 01:22:03;;;;;;;1.73;0.70;;;20.60;69.00;;;;;;5020371;28;20025;-77
2022/09/08 01:24:40;;;;;;;1.30;0.70;;;20.60;68.30;;;;;;5048257;28;20448;-77
2022/09/08 01:27:12;;;;;;;0.80;0.63;;;20.60;69.00;;;;;;5026584;28;20186;-77
2022/09/08 01:29:41;;;;;;;2.63;0.90;;;20.60;69.30;;;;;;5022625;28;20329;-77
2022/09/08 01:32:09;;;;;;;1.50;0.90;;;20.50;69.00;;;;;;5026351;28;20462;-77
2022/09/08 01:34:40;;;;;;;1.58;0.75;;;20.60;69.10;;;;;;5011464;28;20036;-77
2022/09/08 01:37:06;;;;;;;1.20;0.73;;;20.50;69.50;;;;;;5047108;28;20222;-77
2022/09/08 01:39:32;;;;;;;2.63;0.90;;;20.50;69.00;;;;;;5057749;28;20095;-77
2022/09/08 01:41:58;;;;;;;2.35;0.93;;;20.50;69.00;;;;;;5055263;28;20086;-77
2022/09/08 01:44:25;;;;;;;1.63;0.70;;;20.50;69.10;;;;;;5027457;28;20082;-76
2022/09/08 01:46:51;;;;;;;2.50;0.90;;;20.40;69.20;;;;;;5024039;28;20227;-77
2022/09/08 01:49:16;;;;;;;2.33;0.80;;;20.40;69.20;;;;;;5013473;28;20072;-77
2022/09/08 01:51:42;;;;;;;1.43;0.70;;;20.40;69.30;;;;;;5025232;28;20384;-77
2022/09/08 01:54:08;;;;;;;2.88;0.70;;;20.40;69.30;;;;;;5052409;28;20137;-77
2022/09/08 01:56:35;;;;;;;1.48;0.90;;;20.40;69.60;;;;;;5036168;28;20123;-77
2022/09/08 01:59:02;;;;;;;0.63;0.60;;;20.40;69.50;;;;;;5043157;28;20066;-77
2022/09/08 02:01:27;;;;;;;1.63;0.87;;;20.30;69.70;;;;;;5037214;28;20019;-77
2022/09/08 02:03:53;;;;;;;1.10;0.70;;;20.30;69.60;;;;;;5028214;28;20066;-77
2022/09/08 02:06:19;;;;;;;1.93;0.80;;;20.20;69.80;;;;;;5013943;28;20028;-77
2022/09/08 02:08:52;;;;;;;1.83;0.90;;;20.20;70.00;;;;;;5010918;28;20024;-77
2022/09/08 02:11:18;;;;;;;2.15;0.80;;;20.20;70.70;;;;;;5039156;28;20599;-77
2022/09/08 02:13:43;;;;;;;2.07;0.80;;;20.20;70.40;;;;;;5042679;28;20485;-77
2022/09/08 02:16:11;;;;;;;1.48;0.80;;;20.20;70.40;;;;;;5016830;28;20123;-77
2022/09/08 02:18:38;;;;;;;1.33;0.80;;;20.20;70.60;;;;;;5035222;28;20051;-77
2022/09/08 02:21:15;;;;;;;1.20;0.60;;;20.20;70.60;;;;;;5044178;28;20025;-77
2022/09/08 02:23:43;;;;;;;1.67;0.70;;;20.20;72.20;;;;;;5040816;28;20103;-77
2022/09/08 02:26:16;;;;;;;1.85;0.90;;;20.20;70.70;;;;;;5045035;28;20055;-77
2022/09/08 02:28:42;;;;;;;1.27;0.63;;;20.20;71.30;;;;;;5029245;28;20099;-77
2022/09/08 02:31:09;;;;;;;1.05;0.60;;;20.10;70.70;;;;;;5034851;28;20116;-77
2022/09/08 02:33:35;;;;;;;1.03;0.70;;;20.20;70.80;;;;;;5015116;28;20028;-77
2022/09/08 02:36:02;;;;;;;1.67;0.70;;;20.10;71.00;;;;;;5027438;28;20125;-77
2022/09/08 02:38:27;;;;;;;2.15;0.52;;;20.10;71.00;;;;;;5047947;28;20020;-77
2022/09/08 02:40:53;;;;;;;1.98;0.60;;;20.10;71.10;;;;;;5024513;28;20649;-77
2022/09/08 02:43:20;;;;;;;0.87;0.50;;;20.10;71.20;;;;;;5029630;28;20357;-77
2022/09/08 02:45:46;;;;;;;0.77;0.70;;;20.10;71.30;;;;;;5027900;28;20127;-76
2022/09/08 02:48:12;;;;;;;1.17;0.70;;;20.10;71.40;;;;;;5058606;28;20455;-77
2022/09/08 02:50:38;;;;;;;1.80;0.70;;;20.00;71.40;;;;;;5022249;28;20028;-77
2022/09/08 02:53:04;;;;;;;1.98;0.68;;;20.00;71.60;;;;;;5045099;28;20252;-76
2022/09/08 02:55:30;;;;;;;1.17;0.60;;;20.00;71.60;;;;;;5002717;28;20115;-77
2022/09/08 02:57:55;;;;;;;1.43;0.67;;;20.00;71.80;;;;;;5032000;28;20047;-77
2022/09/08 03:00:21;;;;;;;1.15;0.73;;;20.00;71.80;;;;;;5036534;28;20025;-76
2022/09/08 03:02:47;;;;;;;0.70;0.60;;;20.00;72.00;;;;;;5026352;28;20538;-77
2022/09/08 03:05:13;;;;;;;1.15;0.80;;;20.00;72.10;;;;;;4998742;28;20615;-77
2022/09/08 03:07:39;;;;;;;1.35;0.70;;;20.00;72.00;;;;;;5028907;28;20020;-77
2022/09/08 03:10:06;;;;;;;2.00;0.70;;;20.00;72.20;;;;;;5027570;28;20224;-77
2022/09/08 03:12:33;;;;;;;1.27;0.70;;;20.00;72.40;;;;;;5036306;28;20040;-77
2022/09/08 03:14:58;;;;;;;1.60;0.70;;;20.00;72.50;;;;;;5018804;28;20523;-77
2022/09/08 03:17:24;;;;;;;1.67;0.80;;;20.00;72.50;;;;;;5022677;28;20024;-77
2022/09/08 03:19:51;;;;;;;1.55;0.70;;;20.00;72.50;;;;;;5030666;28;20020;-77
2022/09/08 03:22:17;;;;;;;3.17;0.80;;;20.00;72.80;;;;;;5000813;28;20135;-77
2022/09/08 03:24:43;;;;;;;1.50;0.80;;;19.90;72.80;;;;;;5054840;28;20543;-76
2022/09/08 03:27:09;;;;;;;0.95;0.73;;;19.90;73.00;;;;;;5018839;28;20366;-77
2022/09/08 03:29:35;;;;;;;1.83;0.95;;;19.90;73.30;;;;;;5042209;28;21303;-77
2022/09/08 03:32:01;;;;;;;2.63;0.80;;;19.90;73.40;;;;;;5052279;28;20292;-77
2022/09/08 03:34:26;;;;;;;1.75;0.80;;;19.90;73.50;;;;;;5041154;28;20236;-76
2022/09/08 03:36:53;;;;;;;1.27;0.70;;;19.90;73.70;;;;;;5000289;28;20162;-76
2022/09/08 03:39:19;;;;;;;2.13;0.80;;;19.90;74.00;;;;;;5041533;28;20031;-77
2022/09/08 03:41:45;;;;;;;1.35;0.90;;;19.90;74.10;;;;;;5001971;28;20020;-76
2022/09/08 03:44:11;;;;;;;1.20;0.80;;;19.80;74.30;;;;;;5052301;28;20154;-77
2022/09/08 03:46:36;;;;;;;2.30;0.90;;;19.80;74.40;;;;;;5033549;28;20366;-77
2022/09/08 03:49:03;;;;;;;2.23;0.90;;;19.80;74.70;;;;;;5029206;28;20025;-77
2022/09/08 03:51:29;;;;;;;1.83;0.82;;;19.80;75.00;;;;;;5035446;28;20017;-77
2022/09/08 03:54:46;;;;;;;1.92;1.02;;;19.80;75.00;;;;;;5018276;28;20214;-77
2022/09/08 03:56:43;;;;;;;2.37;0.90;;;19.70;75.30;;;;;;5023206;28;20025;-77
2022/09/08 03:59:10;;;;;;;3.08;0.93;;;19.80;75.20;;;;;;5037256;28;20028;-77
2022/09/08 04:01:36;;;;;;;1.65;1.15;;;19.70;75.50;;;;;;5032970;28;20393;-76
2022/09/08 04:04:03;;;;;;;1.80;0.90;;;19.70;75.50;;;;;;5048180;28;20308;-77
2022/09/08 04:06:29;;;;;;;2.25;1.08;;;19.70;75.70;;;;;;5038040;28;20316;-77
2022/09/08 04:08:55;;;;;;;2.57;0.90;;;19.70;75.70;;;;;;5021890;28;20040;-77
2022/09/08 04:11:21;;;;;;;1.30;1.00;;;19.70;75.90;;;;;;5029798;28;20028;-76
2022/09/08 04:13:47;;;;;;;1.90;1.02;;;19.70;76.00;;;;;;5049096;28;20486;-77
2022/09/08 04:16:12;;;;;;;1.98;1.10;;;19.60;76.00;;;;;;5046528;28;20017;-76
2022/09/08 04:18:38;;;;;;;1.80;0.90;;;19.70;76.20;;;;;;5056305;28;20043;-77
2022/09/08 04:21:04;;;;;;;1.98;1.05;;;19.70;76.20;;;;;;5030768;28;20103;-77
2022/09/08 04:23:31;;;;;;;2.50;1.10;;;19.60;76.30;;;;;;5014916;28;20331;-77
2022/09/08 04:25:59;;;;;;;2.65;1.10;;;19.60;76.50;;;;;;5021381;28;20024;-77
2022/09/08 04:28:25;;;;;;;3.03;1.20;;;19.60;76.70;;;;;;5044519;28;20036;-77
2022/09/08 04:30:51;;;;;;;3.13;0.90;;;19.60;76.70;;;;;;5020521;28;20300;-77
2022/09/08 04:33:16;;;;;;;2.50;1.17;;;19.60;76.80;;;;;;5044711;28;20024;-76
2022/09/08 04:35:42;;;;;;;3.13;1.30;;;19.60;77.00;;;;;;5025868;28;20789;-77
2022/09/08 04:38:08;;;;;;;3.17;1.03;;;19.60;77.00;;;;;;5028874;28;20432;-77
2022/09/08 04:40:34;;;;;;;2.72;1.40;;;19.60;77.20;;;;;;5018693;28;20035;-77
2022/09/08 04:43:00;;;;;;;2.30;1.10;;;19.60;77.40;;;;;;5002535;28;20028;-77
2022/09/08 04:45:25;;;;;;;3.20;1.30;;;19.60;77.50;;;;;;5013262;28;20102;-77
2022/09/08 04:47:51;;;;;;;2.13;1.17;;;19.50;77.50;;;;;;5039476;28;20031;-77
2022/09/08 04:50:16;;;;;;;2.17;1.30;;;19.50;77.70;;;;;;5009167;28;20052;-77
2022/09/08 04:52:42;;;;;;;2.57;1.37;;;19.50;77.80;;;;;;5053469;28;20132;-76
2022/09/08 04:55:10;;;;;;;2.78;1.23;;;19.50;77.90;;;;;;4999331;28;20305;-76
2022/09/08 04:57:36;;;;;;;2.30;1.40;;;19.50;78.10;;;;;;5035879;28;20028;-76
2022/09/08 05:00:03;;;;;;;2.43;1.20;;;19.50;78.00;;;;;;5010360;28;20169;-77
2022/09/08 05:02:29;;;;;;;2.00;1.10;;;19.50;78.00;;;;;;5024511;28;20355;-76
2022/09/08 05:04:55;;;;;;;2.95;1.20;;;19.50;78.10;;;;;;5019801;28;20087;-76
2022/09/08 05:07:20;;;;;;;1.97;1.20;;;19.50;78.10;;;;;;5013530;28;20460;-77
2022/09/08 05:09:46;;;;;;;2.33;1.10;;;19.50;78.30;;;;;;5017243;28;20040;-77
2022/09/08 05:12:11;;;;;;;2.23;1.20;;;19.40;78.10;;;;;;5012929;28;20065;-76
2022/09/08 05:14:37;;;;;;;2.72;1.30;;;19.40;78.20;;;;;;5006325;28;20240;-77
2022/09/08 05:17:03;;;;;;;3.23;1.40;;;19.40;78.30;;;;;;5023407;28;20017;-77
2022/09/08 05:19:29;;;;;;;2.60;1.33;;;19.40;78.50;;;;;;5026139;28;20378;-76
2022/09/08 05:21:54;;;;;;;1.87;1.10;;;19.40;78.60;;;;;;5022286;28;20025;-77
2022/09/08 05:24:21;;;;;;;1.85;1.20;;;19.40;78.60;;;;;;4988478;28;20521;-77
2022/09/08 05:26:46;;;;;;;2.95;1.38;;;19.30;78.80;;;;;;5025607;28;20028;-76
2022/09/08 05:29:12;;;;;;;2.63;1.37;;;19.30;78.80;;;;;;5018581;28;20020;-76
2022/09/08 05:31:38;;;;;;;2.42;1.23;;;19.30;78.80;;;;;;5013746;28;20058;-77
2022/09/08 05:34:04;;;;;;;3.47;1.53;;;19.30;78.70;;;;;;5007875;28;20032;-77
2022/09/08 05:36:35;;;;;;;3.42;1.50;;;19.20;78.80;;;;;;5019717;28;20108;-77
2022/09/08 05:39:03;;;;;;;2.88;1.25;;;19.20;79.30;;;;;;4997170;28;20478;-76
2022/09/08 05:41:30;;;;;;;2.40;1.40;;;19.20;78.90;;;;;;5034341;28;20020;-77
2022/09/08 05:43:57;;;;;;;2.43;1.23;;;19.10;78.80;;;;;;5007091;28;20120;-77
2022/09/08 05:46:25;;;;;;;2.20;1.20;;;19.10;78.90;;;;;;5042754;28;20742;-76
2022/09/08 05:48:57;;;;;;;3.78;1.30;;;19.10;78.80;;;;;;5038599;28;20510;-77
2022/09/08 05:51:23;;;;;;;2.05;1.20;;;19.00;79.00;;;;;;5054089;28;20321;-77
2022/09/08 05:53:49;;;;;;;3.88;1.38;;;19.00;78.90;;;;;;5029213;28;20562;-77
2022/09/08 05:56:18;;;;;;;2.50;1.43;;;19.00;79.00;;;;;;5029534;28;20407;-76
2022/09/08 05:58:50;;;;;;;2.92;1.55;;;18.90;79.00;;;;;;5054385;28;20508;-77
2022/09/08 06:01:16;;;;;;;2.13;1.30;;;18.90;79.40;;;;;;5036490;28;20029;-77
2022/09/08 06:03:41;;;;;;;3.15;1.70;;;18.90;79.00;;;;;;5023846;28;20348;-77
2022/09/08 06:06:11;;;;;;;3.87;1.60;;;18.80;79.20;;;;;;5034233;28;20519;-76
2022/09/08 06:08:38;;;;;;;3.17;1.80;;;18.80;79.60;;;;;;5028720;28;20129;-77
2022/09/08 06:11:05;;;;;;;4.72;1.77;;;18.80;79.80;;;;;;5026267;28;20035;-76
2022/09/08 06:13:32;;;;;;;2.77;1.80;;;18.80;79.80;;;;;;5023004;28;20107;-77
2022/09/08 06:16:06;;;;;;;3.42;1.90;;;18.80;79.90;;;;;;5038958;28;20027;-76
2022/09/08 06:18:34;;;;;;;4.03;1.60;;;18.80;80.30;;;;;;5020681;28;20021;-76
2022/09/08 06:21:08;;;;;;;4.90;1.80;;;18.80;80.20;;;;;;5011916;28;20470;-76
2022/09/08 06:23:34;;;;;;;3.60;1.80;;;18.80;80.70;;;;;;5019585;28;20025;-77
2022/09/08 06:26:27;;;;;;;3.13;1.90;;;18.90;80.70;;;;;;5046559;28;20450;-76
2022/09/08 06:29:14;;;;;;;3.25;2.05;;;18.90;81.50;;;;;;5000902;28;20032;-76
2022/09/08 06:31:49;;;;;;;3.05;1.80;;;19.00;81.80;;;;;;5051292;28;20024;-76
2022/09/08 06:34:26;;;;;;;3.47;1.60;;;19.10;81.50;;;;;;5048640;28;20091;-76
2022/09/08 06:37:01;;;;;;;2.25;1.48;;;19.10;81.70;;;;;;5021919;28;20116;-76
2022/09/08 06:39:36;;;;;;;2.30;1.50;;;19.20;81.80;;;;;;5037822;28;20273;-77
2022/09/08 06:42:35;;;;;;;2.42;1.60;;;19.30;81.60;;;;;;5039244;28;20547;-77
2022/09/08 06:45:02;;;;;;;2.38;1.30;;;19.40;81.90;;;;;;5038851;28;20030;-77
2022/09/08 06:47:38;;;;;;;3.15;1.30;;;19.50;81.80;;;;;;5012881;28;20025;-76
2022/09/08 06:50:09;;;;;;;2.00;1.30;;;19.60;82.00;;;;;;5016198;28;20431;-77
2022/09/08 06:52:48;;;;;;;2.60;1.47;;;19.70;81.80;;;;;;5028507;28;20044;-76
2022/09/08 06:55:26;;;;;;;1.80;1.13;;;19.70;81.30;;;;;;5039854;28;20070;-76
2022/09/08 06:57:57;;;;;;;2.08;1.30;;;19.80;81.10;;;;;;4998985;28;20532;-77
2022/09/08 07:00:33;;;;;;;2.10;1.00;;;19.80;80.80;;;;;;5031804;28;20025;-77
2022/09/08 07:03:14;;;;;;;2.58;1.17;;;19.80;80.60;;;;;;5057602;28;20049;-77
2022/09/08 07:05:45;;;;;;;2.43;1.10;;;19.80;80.50;;;;;;5042618;28;20029;-77
2022/09/08 07:08:32;;;;;;;2.00;1.10;;;19.80;80.50;;;;;;5039352;28;20086;-77
2022/09/08 07:11:10;;;;;;;1.90;1.05;;;19.80;80.60;;;;;;5036405;28;20068;-77
2022/09/08 07:13:57;;;;;;;2.25;1.20;;;19.80;80.60;;;;;;5041686;28;20177;-77
2022/09/08 07:16:32;;;;;;;2.53;1.20;;;19.80;80.80;;;;;;5046996;28;20093;-77
2022/09/08 07:19:18;;;;;;;1.67;1.17;;;19.80;80.80;;;;;;5063535;28;20593;-77
2022/09/08 07:22:11;;;;;;;1.98;1.10;;;19.80;80.90;;;;;;5051423;28;20133;-77
2022/09/08 07:24:41;;;;;;;2.83;1.08;;;19.90;81.20;;;;;;5055912;28;20371;-78
2022/09/08 07:27:12;;;;;;;2.80;1.10;;;19.90;81.30;;;;;;5007992;28;20035;-77
2022/09/08 07:29:46;;;;;;;1.38;1.08;;;20.00;81.60;;;;;;5042780;28;20242;-77
2022/09/08 07:32:17;;;;;;;1.50;0.90;;;20.00;81.70;;;;;;5044032;28;20056;-77
2022/09/08 07:34:55;;;;;;;2.13;1.15;;;20.00;81.80;;;;;;5058598;28;20583;-77
2022/09/08 07:37:28;;;;;;;2.70;1.30;;;20.20;81.70;;;;;;5027620;28;20029;-76
2022/09/08 07:40:20;;;;;;;2.70;1.20;;;20.20;82.00;;;;;;5044869;28;20449;-77
2022/09/08 07:42:54;;;;;;;2.40;1.02;;;20.40;82.60;;;;;;5052231;28;20267;-77
2022/09/08 07:45:41;;;;;;;2.00;1.03;;;20.60;84.90;;;;;;5036155;28;20036;-77
2022/09/08 07:48:22;;;;;;;3.60;1.20;;;20.90;87.10;;;;;;5016695;28;20075;-78
2022/09/08 07:51:04;;;;;;;1.60;1.10;;;21.40;85.90;;;;;;5021029;28;20045;-77
2022/09/08 07:53:51;;;;;;;2.05;1.20;;;21.80;84.50;;;;;;5024297;28;20032;-77
2022/09/08 07:56:27;;;;;;;2.00;1.27;;;22.00;82.30;;;;;;5041318;28;20132;-77
2022/09/08 07:59:16;;;;;;;3.53;1.20;;;22.30;81.00;;;;;;5000064;28;20024;-78
2022/09/08 08:01:41;;;;;;;1.60;1.10;;;22.30;79.80;;;;;;5024847;28;21634;-78
2022/09/08 08:04:19;;;;;;;2.05;1.20;;;22.40;80.40;;;;;;5060256;28;20537;-78
2022/09/08 08:06:47;;;;;;;1.80;1.20;;;22.50;81.10;;;;;;5034056;28;20171;-78
2022/09/08 08:09:55;;;;;;;1.98;1.30;;;22.60;83.60;;;;;;5034331;28;20020;-78
2022/09/08 08:12:32;;;;;;;2.85;1.08;;;23.00;83.00;;;;;;5049481;28;20032;-77
2022/09/08 08:15:11;;;;;;;2.55;1.10;;;23.40;83.50;;;;;;5027682;28;20107;-77
2022/09/08 08:17:43;;;;;;;2.38;1.27;;;23.80;84.60;;;;;;4999389;28;20650;-78
2022/09/08 08:20:21;;;;;;;3.00;1.30;;;24.20;81.50;;;;;;5038503;28;20029;-77
2022/09/08 08:23:05;;;;;;;1.40;1.20;;;24.40;79.00;;;;;;5027661;28;20234;-77
2022/09/08 08:25:55;;;;;;;2.53;1.30;;;24.50;75.80;;;;;;5013345;28;20519;-77
2022/09/08 08:28:22;;;;;;;2.65;1.17;;;24.50;74.70;;;;;;5051496;28;20027;-78
2022/09/08 08:31:17;;;;;;;3.42;1.40;;;24.40;74.60;;;;;;5018236;28;20258;-77
2022/09/08 08:33:50;;;;;;;1.83;1.17;;;24.10;72.70;;;;;;5000539;28;20078;-78
2022/09/08 08:36:21;;;;;;;2.45;1.20;;;23.90;73.60;;;;;;5048938;28;20374;-78
2022/09/08 08:38:52;;;;;;;2.53;1.10;;;23.70;73.60;;;;;;5043939;28;20100;-77
2022/09/08 08:41:31;;;;;;;2.00;1.30;;;23.50;73.80;;;;;;5065247;28;20028;-78
2022/09/08 08:44:17;;;;;;;2.95;1.30;;;23.30;74.00;;;;;;5047216;28;20025;-77
2022/09/08 08:47:00;;;;;;;2.40;1.10;;;23.20;73.70;;;;;;5026407;28;20584;-78
2022/09/08 08:49:26;;;;;;;2.13;1.20;;;23.10;74.60;;;;;;5016225;28;20391;-78
2022/09/08 08:52:05;;;;;;;1.67;1.10;;;23.00;75.00;;;;;;5035665;28;20732;-78
2022/09/08 08:55:26;;;;;;;2.65;1.10;;;22.90;74.80;;;;;;5042337;28;20430;-78
2022/09/08 08:57:58;;;;;;;3.42;1.40;;;22.80;74.10;;;;;;4969971;28;20119;-77
2022/09/08 09:00:36;;;;;;;2.45;1.30;;;22.70;75.60;;;;;;5032813;28;20016;-77
2022/09/08 09:03:31;;;;;;;3.20;1.40;;;22.70;77.00;;;;;;5040589;28;20389;-77
2022/09/08 09:06:34;;;;;;;2.47;1.40;;;22.90;76.70;;;;;;5010696;28;20037;-77
2022/09/08 09:09:19;;;;;;;3.15;1.40;;;23.00;75.80;;;;;;5017034;28;20052;-77
2022/09/08 09:12:19;;;;;;;2.42;1.40;;;23.20;75.30;;;;;;5021104;28;20469;-77
2022/09/08 09:15:20;;;;;;;2.40;1.50;;;23.40;75.30;;;;;;5024757;28;20028;-76
2022/09/08 09:17:55;;;;;;;2.30;1.50;;;23.50;74.40;;;;;;5029438;28;20021;-76
2022/09/08 09:20:44;;;;;;;2.63;1.30;;;23.50;74.30;;;;;;5010323;28;20507;-77
2022/09/08 09:23:21;;;;;;;1.50;1.20;;;23.50;74.00;;;;;;5053821;28;20020;-78
2022/09/08 09:26:01;;;;;;;3.17;1.48;;;23.40;72.50;;;;;;5005504;28;20059;-77
2022/09/08 09:28:36;;;;;;;2.47;1.30;;;23.30;72.00;;;;;;5053345;28;20032;-77
2022/09/08 09:31:34;;;;;;;2.35;1.30;;;23.20;73.80;;;;;;5041347;28;20032;-77
2022/09/08 09:34:28;;;;;;;3.67;1.10;;;23.40;76.10;;;;;;5052365;28;20040;-77
2022/09/08 09:37:06;;;;;;;2.38;1.05;;;23.80;77.70;;;;;;5054112;28;20035;-77
2022/09/08 09:39:54;;;;;;;3.08;1.30;;;24.20;77.30;;;;;;5045366;28;20501;-77
2022/09/08 09:42:28;;;;;;;2.72;1.35;;;24.60;78.30;;;;;;5037891;28;20058;-77
2022/09/08 09:45:25;;;;;;;2.00;1.50;;;24.90;76.10;;;;;;5039886;28;20083;-77
2022/09/08 09:48:35;;;;;;;2.40;1.20;;;25.10;71.80;;;;;;5032580;28;20622;-77
2022/09/08 09:51:15;;;;;;;2.45;1.30;;;25.20;70.40;;;;;;5005693;28;20063;-77
2022/09/08 09:53:43;;;;;;;2.75;1.23;;;25.20;71.80;;;;;;5024136;28;20033;-77
2022/09/08 09:56:41;;;;;;;2.58;1.48;;;25.40;75.30;;;;;;5016478;28;20021;-79
2022/09/08 09:59:41;;;;;;;1.90;1.55;;;25.60;74.40;;;;;;5027312;28;20291;-77
2022/09/08 10:02:44;;;;;;;2.10;1.57;;;25.90;71.50;;;;;;4977989;28;20043;-78
2022/09/08 10:05:22;;;;;;;2.65;1.55;;;26.00;69.00;;;;;;5023371;28;20107;-77
2022/09/08 10:08:30;;;;;;;1.95;1.45;;;26.10;68.50;;;;;;5032033;28;20114;-77
2022/09/08 10:11:11;;;;;;;2.58;1.38;;;26.00;67.30;;;;;;5033558;28;20031;-77
2022/09/08 10:13:59;;;;;;;2.40;1.60;;;25.90;66.90;;;;;;5031034;28;20284;-77
2022/09/08 10:17:09;;;;;;;1.63;1.10;;;25.70;67.20;;;;;;5016352;28;20485;-76
2022/09/08 10:19:34;;;;;;;2.47;1.05;;;25.80;69.00;;;;;;5001221;28;20554;-78
2022/09/08 10:22:51;;;;;;;2.05;0.93;;;26.00;73.00;;;;;;5045874;28;20016;-77
2022/09/08 10:25:50;;;;;;;1.37;0.90;;;26.30;68.80;;;;;;5005827;28;20044;-77
2022/09/08 10:28:30;;;;;;;1.80;1.00;;;26.70;70.20;;;;;;5028729;28;20463;-77
2022/09/08 10:31:24;;;;;;;4.82;1.05;;;26.90;72.80;;;;;;5052935;28;20020;-76
2022/09/08 10:34:20;;;;;;;1.83;0.98;;;27.30;68.40;;;;;;5038118;28;20060;-78
2022/09/08 10:37:01;;;;;;;2.55;1.10;;;27.40;67.70;;;;;;5033053;28;20314;-77
2022/09/08 10:40:04;;;;;;;2.53;1.03;;;27.40;68.20;;;;;;5004051;28;20021;-78
2022/09/08 10:42:45;;;;;;;1.95;1.00;;;27.30;63.70;;;;;;5011898;28;20362;-78
2022/09/08 10:45:55;;;;;;;1.50;1.15;;;27.10;63.30;;;;;;5019108;28;20028;-77
2022/09/08 10:48:47;;;;;;;2.38;1.00;;;26.90;62.70;;;;;;5040254;28;20032;-76
2022/09/08 10:51:26;;;;;;;2.28;1.13;;;26.60;62.90;;;;;;5033195;28;20021;-77
2022/09/08 10:54:09;;;;;;;2.30;0.90;;;26.40;65.40;;;;;;5020628;28;20309;-77
2022/09/08 10:56:38;;;;;;;1.77;0.90;;;26.60;68.60;;;;;;5033636;28;20009;-78
2022/09/08 10:59:19;;;;;;;3.00;1.02;;;26.80;72.20;;;;;;5032345;28;20078;-77
2022/09/08 11:02:09;;;;;;;2.63;0.90;;;27.30;70.10;;;;;;5009957;28;20028;-77
2022/09/08 11:05:01;;;;;;;1.05;0.90;;;27.80;70.40;;;;;;4984689;28;20345;-77
2022/09/08 11:07:51;;;;;;;1.27;0.90;;;28.30;73.30;;;;;;4986379;28;20115;-77
2022/09/08 11:10:47;;;;;;;2.33;1.00;;;28.80;66.80;;;;;;4998441;28;20086;-77
2022/09/08 11:13:33;;;;;;;1.92;0.90;;;28.90;62.60;;;;;;5008684;28;20041;-79
2022/09/08 11:16:17;;;;;;;3.08;1.05;;;28.80;64.00;;;;;;5002459;28;20453;-77
2022/09/08 11:19:06;;;;;;;2.80;1.10;;;28.60;61.10;;;;;;5001128;28;20156;-76
2022/09/08 11:21:45;;;;;;;1.77;0.87;;;28.40;60.00;;;;;;5005792;28;20053;-77
2022/09/08 11:24:48;;;;;;;3.13;1.02;;;28.30;62.70;;;;;;5019443;28;20029;-77
2022/09/08 11:27:22;;;;;;;1.90;0.98;;;28.20;59.70;;;;;;5025136;28;20033;-78
2022/09/08 11:30:13;;;;;;;2.92;1.00;;;28.40;62.90;;;;;;5026107;28;20569;-78
2022/09/08 11:32:48;;;;;;;2.45;0.90;;;28.60;62.10;;;;;;5006214;28;20029;-78
2022/09/08 11:35:23;;;;;;;3.57;1.10;;;28.80;64.60;;;;;;5015535;28;20090;-77
2022/09/08 11:38:15;;;;;;;2.97;1.13;;;29.20;62.40;;;;;;4999278;28;20032;-76
2022/09/08 11:41:08;;;;;;;2.83;1.20;;;29.50;66.00;;;;;;5012411;28;20115;-78
2022/09/08 11:43:43;;;;;;;1.73;1.15;;;29.80;62.00;;;;;;5024124;28;20025;-77
2022/09/08 11:46:34;;;;;;;3.20;1.23;;;30.00;61.60;;;;;;5023846;28;20099;-77
2022/09/08 11:48:59;;;;;;;1.70;0.90;;;30.10;60.00;;;;;;5011034;28;20067;-77
2022/09/08 11:51:37;;;;;;;1.83;1.00;;;30.20;61.70;;;;;;4984479;28;20034;-78
2022/09/08 11:54:14;;;;;;;2.73;1.23;;;30.10;59.30;;;;;;5036761;28;20065;-78
2022/09/08 11:56:42;;;;;;;2.38;0.93;;;29.80;54.50;;;;;;4998218;28;20254;-78
2022/09/08 11:59:20;;;;;;;2.45;1.00;;;29.50;56.60;;;;;;5011885;28;20511;-77
2022/09/08 12:02:26;;;;;;;2.60;1.10;;;29.20;55.70;;;;;;5035320;28;20045;-77
2022/09/08 12:05:23;;;;;;;4.30;1.23;;;29.10;56.50;;;;;;5043367;28;20463;-77
2022/09/08 12:07:51;;;;;;;3.13;1.30;;;29.20;59.10;;;;;;5031653;28;20235;-76
2022/09/08 12:10:38;;;;;;;3.05;1.15;;;29.30;58.40;;;;;;5053287;28;20029;-77
2022/09/08 12:13:31;;;;;;;2.20;0.95;;;29.30;56.30;;;;;;5049901;28;20557;-78
2022/09/08 12:16:31;;;;;;;2.15;1.00;;;29.10;55.40;;;;;;5063132;28;20032;-78
2022/09/08 12:19:36;;;;;;;2.45;1.10;;;28.90;55.90;;;;;;5055115;28;20033;-78
2022/09/08 12:22:32;;;;;;;1.93;0.97;;;28.80;56.70;;;;;;4956494;28;20493;-77
2022/09/08 12:25:03;;;;;;;2.13;1.00;;;29.00;56.50;;;;;;5041599;28;20017;-78
2022/09/08 12:28:11;;;;;;;2.30;1.15;;;29.30;60.50;;;;;;5006260;28;20480;-78
2022/09/08 12:31:05;;;;;;;1.67;1.00;;;29.40;56.90;;;;;;5027134;28;20565;-77
2022/09/08 12:33:44;;;;;;;3.67;1.10;;;29.60;56.50;;;;;;5048323;28;20579;-77
2022/09/08 12:36:33;;;;;;;2.20;1.00;;;29.80;57.30;;;;;;5039329;28;20036;-77
2022/09/08 12:39:23;;;;;;;1.77;0.80;;;29.90;54.30;;;;;;5037423;28;20051;-77
2022/09/08 12:41:51;;;;;;;2.42;1.00;;;30.00;54.30;;;;;;5027632;28;20124;-78
2022/09/08 12:44:29;;;;;;;2.17;0.90;;;30.00;56.30;;;;;;5039855;28;20263;-78
2022/09/08 12:47:23;;;;;;;3.40;1.08;;;29.90;55.40;;;;;;5038873;28;20170;-78
2022/09/08 12:50:19;;;;;;;2.23;1.03;;;29.70;52.70;;;;;;5013043;28;20033;-78
2022/09/08 12:53:03;;;;;;;1.20;0.80;;;29.50;53.80;;;;;;5027644;28;20111;-77
2022/09/08 12:55:59;;;;;;;1.83;0.90;;;29.20;51.80;;;;;;5041279;28;20036;-78
2022/09/08 12:58:32;;;;;;;2.50;1.13;;;28.90;54.30;;;;;;5026289;28;20484;-78
2022/09/08 13:01:14;;;;;;;2.03;1.02;;;28.70;54.20;;;;;;5055973;28;20024;-77
2022/09/08 13:03:41;;;;;;;1.60;0.90;;;28.50;54.50;;;;;;5040070;28;20044;-77
2022/09/08 13:06:13;;;;;;;1.73;1.00;;;28.30;55.30;;;;;;5055721;28;20052;-78
2022/09/08 13:09:15;;;;;;;1.88;0.95;;;28.10;55.00;;;;;;5023578;28;20040;-78
2022/09/08 13:12:02;;;;;;;2.17;0.90;;;27.80;54.80;;;;;;5019424;28;20032;-79
2022/09/08 13:14:50;;;;;;;2.15;1.00;;;27.50;54.70;;;;;;5024481;28;20048;-77
2022/09/08 13:17:31;;;;;;;1.83;1.00;;;27.20;55.00;;;;;;5024531;28;20481;-78
2022/09/08 13:20:14;;;;;;;1.88;0.90;;;26.80;55.20;;;;;;5054647;28;20353;-76
2022/09/08 13:23:06;;;;;;;1.58;0.93;;;26.50;55.70;;;;;;5036214;28;20069;-78
2022/09/08 13:26:01;;;;;;;1.83;1.10;;;26.30;56.20;;;;;;5021140;28;20396;-78
2022/09/08 13:28:41;;;;;;;2.20;0.98;;;26.00;56.50;;;;;;5036897;28;20036;-77
2022/09/08 13:31:25;;;;;;;2.03;0.90;;;25.80;56.70;;;;;;5052131;28;20111;-77
2022/09/08 13:34:04;;;;;;;3.00;1.00;;;25.70;57.40;;;;;;5010458;28;20126;-77
2022/09/08 13:36:44;;;;;;;1.58;0.80;;;25.50;57.70;;;;;;5031294;28;20093;-77
2022/09/08 13:39:35;;;;;;;1.83;0.80;;;25.30;57.40;;;;;;5032523;28;20041;-77